Airfield :
LOGIN :

Register | Disclaimer

   EN    FR    IT 

 










Legend :    VFR   Marginal VFR   IFR   Intensive IFR   Very Intensive IFR
Visi :
Ceiling :
>= 8 km
>= 3000ft
5 to 8 km
1000 to 3000 ft
1500m to 5 km
500 to 1000 ft
800 to 1500m
200 to 500 ft
< 800m
< 200 ft
Symbols :   Thunderstorms  Fog  Heavy snow  Heavy precipitations  Wind > 20 kt
SIGMETs :     Misc.  Thunderstorms  Icing  Turbulence  Mountain Waves  Volcanic Ashes







- Airport Elevation : 117 ft
- IATA code : NWI
- Download approach charts


EGSH - Norwich

CURRENT METAR :
  • 121320Z 24006KT CAVOK 02/01 Q1008 NOSIG

EXPIRED METARs :
  • 121250Z 25008KT CAVOK 02/00 Q1008
  • 121220Z 24007KT CAVOK 02/00 Q1008
  • 121150Z 24009KT 9000 NSC 01/00 Q1007 NOSIG
  • 121120Z 24008KT 7000 FEW003 01/00 Q1007 NOSIG
  • 121050Z 24005KT 7000 FEW003 01/00 Q1007 NOSIG

TAF TAF EGSH
Valid from the 12 at 12:00 until the 12 at 21:00 UTC


121102Z 1212/1221 23009KT 7000 SCT020
BECMG 1212/1215 9999
PROB30 1215/1220 6000
PROB30 1220/1221 6000 -SHRA BKN010
ATIS : +44 1603 420 640
No reported NOTAMs for that airfield.
1 SIGMET reported for the London FIR (EGTT) :
 
Severe turbulence
EGTT SIGMET 02 VALID 121100/121500 EGRR
EGTT LONDON FIR SEV TURB FCST WI N5100 W00754 - N5207 W00548 - N4929 W00441 - N4926 W00456 - N4856 W00729 - N5100 W00754 FL200/420 MOV E 05KT NC=



MET'MAP, your aeronautical weather chart ! - Copyright ORBIFLY December 2007 - Disclaimer

ORBIFLY MET'MAP TEAM :

Programming & Development : Alexandra Zaïnal
Concept & Development : Baudouin d'Aumeries
Co-Development & Prog : Marc-Olivier Méhu
Technical & hardware support : Manuel Goepfert

Contact : metmap@orbifly.com




SOURCES & CREDITS :

   NOAA